sensor_id;sensor_type;location;lat;lon;timestamp;P1;durP1;ratioP1;P2;durP2;ratioP2
23394;SDS011;11870;53.084;18.206;2022-12-10T00:01:16;93.05;;;30.77;;
23394;SDS011;11870;53.084;18.206;2022-12-10T00:03:43;89.85;;;31.45;;
23394;SDS011;11870;53.084;18.206;2022-12-10T00:06:11;97.38;;;30.33;;
23394;SDS011;11870;53.084;18.206;2022-12-10T00:08:38;91.72;;;30.17;;
23394;SDS011;11870;53.084;18.206;2022-12-10T00:11:06;88.80;;;30.52;;
23394;SDS011;11870;53.084;18.206;2022-12-10T00:13:34;92.65;;;30.73;;
23394;SDS011;11870;53.084;18.206;2022-12-10T00:16:02;106.00;;;34.25;;
23394;SDS011;11870;53.084;18.206;2022-12-10T00:18:28;102.50;;;34.67;;
23394;SDS011;11870;53.084;18.206;2022-12-10T00:20:55;97.93;;;31.40;;
23394;SDS011;11870;53.084;18.206;2022-12-10T00:23:21;94.85;;;30.48;;
23394;SDS011;11870;53.084;18.206;2022-12-10T00:25:47;96.13;;;32.85;;
23394;SDS011;11870;53.084;18.206;2022-12-10T00:28:13;91.15;;;31.42;;
23394;SDS011;11870;53.084;18.206;2022-12-10T00:30:39;91.72;;;29.27;;
23394;SDS011;11870;53.084;18.206;2022-12-10T00:33:05;90.93;;;30.50;;
23394;SDS011;11870;53.084;18.206;2022-12-10T00:35:34;89.28;;;29.77;;
23394;SDS011;11870;53.084;18.206;2022-12-10T00:38:01;93.80;;;29.38;;
23394;SDS011;11870;53.084;18.206;2022-12-10T00:40:27;91.53;;;30.77;;
23394;SDS011;11870;53.084;18.206;2022-12-10T00:42:53;97.70;;;31.85;;
23394;SDS011;11870;53.084;18.206;2022-12-10T00:45:19;89.85;;;30.00;;
23394;SDS011;11870;53.084;18.206;2022-12-10T00:47:44;90.35;;;29.27;;
23394;SDS011;11870;53.084;18.206;2022-12-10T00:50:11;86.82;;;28.58;;
23394;SDS011;11870;53.084;18.206;2022-12-10T00:52:36;84.68;;;29.25;;
23394;SDS011;11870;53.084;18.206;2022-12-10T00:55:02;91.43;;;31.00;;
23394;SDS011;11870;53.084;18.206;2022-12-10T00:57:29;95.88;;;31.40;;
23394;SDS011;11870;53.084;18.206;2022-12-10T00:59:55;97.43;;;30.10;;
23394;SDS011;11870;53.084;18.206;2022-12-10T01:02:20;92.05;;;31.02;;
23394;SDS011;11870;53.084;18.206;2022-12-10T01:04:46;81.28;;;28.20;;
23394;SDS011;11870;53.084;18.206;2022-12-10T01:07:12;78.72;;;28.38;;
23394;SDS011;11870;53.084;18.206;2022-12-10T01:09:39;93.18;;;29.95;;
23394;SDS011;11870;53.084;18.206;2022-12-10T01:12:05;80.80;;;28.90;;
23394;SDS011;11870;53.084;18.206;2022-12-10T01:14:31;94.80;;;29.85;;
23394;SDS011;11870;53.084;18.206;2022-12-10T01:17:02;82.28;;;29.38;;
23394;SDS011;11870;53.084;18.206;2022-12-10T01:19:30;80.00;;;27.02;;
23394;SDS011;11870;53.084;18.206;2022-12-10T01:21:56;78.75;;;28.15;;
23394;SDS011;11870;53.084;18.206;2022-12-10T01:24:23;79.63;;;28.35;;
23394;SDS011;11870;53.084;18.206;2022-12-10T01:26:50;78.32;;;28.00;;
23394;SDS011;11870;53.084;18.206;2022-12-10T01:29:17;77.40;;;27.27;;
23394;SDS011;11870;53.084;18.206;2022-12-10T01:31:43;68.43;;;26.10;;
23394;SDS011;11870;53.084;18.206;2022-12-10T01:34:11;68.57;;;24.65;;
23394;SDS011;11870;53.084;18.206;2022-12-10T01:36:39;76.05;;;27.63;;
23394;SDS011;11870;53.084;18.206;2022-12-10T01:39:07;68.25;;;25.80;;
23394;SDS011;11870;53.084;18.206;2022-12-10T01:41:40;67.95;;;25.42;;
23394;SDS011;11870;53.084;18.206;2022-12-10T01:46:43;61.58;;;25.10;;
23394;SDS011;11870;53.084;18.206;2022-12-10T01:49:12;63.67;;;23.77;;
23394;SDS011;11870;53.084;18.206;2022-12-10T01:51:41;59.95;;;22.40;;
23394;SDS011;11870;53.084;18.206;2022-12-10T01:54:10;66.57;;;24.70;;
23394;SDS011;11870;53.084;18.206;2022-12-10T01:56:40;62.58;;;25.38;;
23394;SDS011;11870;53.084;18.206;2022-12-10T01:59:08;66.28;;;24.88;;
23394;SDS011;11870;53.084;18.206;2022-12-10T02:01:38;59.88;;;23.38;;
23394;SDS011;11870;53.084;18.206;2022-12-10T02:04:41;58.92;;;23.58;;
23394;SDS011;11870;53.084;18.206;2022-12-10T02:10:32;61.70;;;22.95;;
23394;SDS011;11870;53.084;18.206;2022-12-10T02:13:20;60.85;;;23.15;;
23394;SDS011;11870;53.084;18.206;2022-12-10T02:15:52;58.50;;;22.58;;
23394;SDS011;11870;53.084;18.206;2022-12-10T02:18:29;58.22;;;23.73;;
23394;SDS011;11870;53.084;18.206;2022-12-10T02:21:00;58.38;;;24.02;;
23394;SDS011;11870;53.084;18.206;2022-12-10T02:23:33;63.60;;;24.27;;
23394;SDS011;11870;53.084;18.206;2022-12-10T02:31:26;67.70;;;24.75;;
23394;SDS011;11870;53.084;18.206;2022-12-10T02:33:56;66.10;;;24.70;;
23394;SDS011;11870;53.084;18.206;2022-12-10T02:36:25;61.22;;;24.25;;
23394;SDS011;11870;53.084;18.206;2022-12-10T02:38:55;64.25;;;24.45;;
23394;SDS011;11870;53.084;18.206;2022-12-10T02:41:25;69.80;;;24.50;;
23394;SDS011;11870;53.084;18.206;2022-12-10T02:44:01;68.35;;;25.13;;
23394;SDS011;11870;53.084;18.206;2022-12-10T02:46:31;68.32;;;26.15;;
23394;SDS011;11870;53.084;18.206;2022-12-10T02:49:00;68.20;;;24.90;;
23394;SDS011;11870;53.084;18.206;2022-12-10T02:51:28;60.53;;;24.08;;
23394;SDS011;11870;53.084;18.206;2022-12-10T02:53:58;61.17;;;24.35;;
23394;SDS011;11870;53.084;18.206;2022-12-10T02:59:01;65.60;;;24.95;;
23394;SDS011;11870;53.084;18.206;2022-12-10T03:07:18;61.45;;;23.55;;
23394;SDS011;11870;53.084;18.206;2022-12-10T03:10:11;64.35;;;24.85;;
23394;SDS011;11870;53.084;18.206;2022-12-10T03:12:58;60.78;;;22.63;;
23394;SDS011;11870;53.084;18.206;2022-12-10T03:15:26;58.22;;;25.00;;
23394;SDS011;11870;53.084;18.206;2022-12-10T03:17:55;69.13;;;25.45;;
23394;SDS011;11870;53.084;18.206;2022-12-10T03:20:23;66.05;;;26.15;;
23394;SDS011;11870;53.084;18.206;2022-12-10T03:22:51;60.80;;;24.13;;
23394;SDS011;11870;53.084;18.206;2022-12-10T03:25:19;225.88;;;81.70;;
23394;SDS011;11870;53.084;18.206;2022-12-10T03:27:48;90.30;;;35.97;;
23394;SDS011;11870;53.084;18.206;2022-12-10T03:30:16;111.78;;;46.78;;
23394;SDS011;11870;53.084;18.206;2022-12-10T03:32:43;77.05;;;30.10;;
23394;SDS011;11870;53.084;18.206;2022-12-10T03:35:10;83.82;;;32.58;;
23394;SDS011;11870;53.084;18.206;2022-12-10T03:37:37;72.75;;;29.95;;
23394;SDS011;11870;53.084;18.206;2022-12-10T03:40:04;65.25;;;25.85;;
23394;SDS011;11870;53.084;18.206;2022-12-10T03:42:32;77.68;;;30.35;;
23394;SDS011;11870;53.084;18.206;2022-12-10T03:44:59;79.20;;;29.83;;
23394;SDS011;11870;53.084;18.206;2022-12-10T03:47:26;70.95;;;27.15;;
23394;SDS011;11870;53.084;18.206;2022-12-10T03:49:51;98.60;;;36.53;;
23394;SDS011;11870;53.084;18.206;2022-12-10T03:52:17;94.78;;;35.90;;
23394;SDS011;11870;53.084;18.206;2022-12-10T03:54:43;78.57;;;29.42;;
23394;SDS011;11870;53.084;18.206;2022-12-10T03:57:09;60.10;;;25.55;;
23394;SDS011;11870;53.084;18.206;2022-12-10T03:59:35;63.30;;;25.17;;
23394;SDS011;11870;53.084;18.206;2022-12-10T04:02:01;66.25;;;25.02;;
23394;SDS011;11870;53.084;18.206;2022-12-10T04:04:28;76.57;;;27.77;;
23394;SDS011;11870;53.084;18.206;2022-12-10T04:06:54;64.43;;;25.42;;
23394;SDS011;11870;53.084;18.206;2022-12-10T04:09:20;74.65;;;29.58;;
23394;SDS011;11870;53.084;18.206;2022-12-10T04:11:46;70.15;;;26.73;;
23394;SDS011;11870;53.084;18.206;2022-12-10T04:14:12;73.65;;;26.98;;
23394;SDS011;11870;53.084;18.206;2022-12-10T04:16:57;57.92;;;22.77;;
23394;SDS011;11870;53.084;18.206;2022-12-10T04:19:23;63.67;;;24.75;;
23394;SDS011;11870;53.084;18.206;2022-12-10T04:21:50;63.65;;;24.75;;
23394;SDS011;11870;53.084;18.206;2022-12-10T04:24:35;61.63;;;23.80;;
23394;SDS011;11870;53.084;18.206;2022-12-10T04:29:53;59.50;;;24.35;;
23394;SDS011;11870;53.084;18.206;2022-12-10T04:32:21;65.13;;;23.30;;
23394;SDS011;11870;53.084;18.206;2022-12-10T04:34:48;59.67;;;23.20;;
23394;SDS011;11870;53.084;18.206;2022-12-10T04:37:15;60.22;;;23.10;;
23394;SDS011;11870;53.084;18.206;2022-12-10T04:39:42;57.88;;;22.08;;
23394;SDS011;11870;53.084;18.206;2022-12-10T04:42:08;56.10;;;23.33;;
23394;SDS011;11870;53.084;18.206;2022-12-10T04:44:34;55.58;;;22.10;;
23394;SDS011;11870;53.084;18.206;2022-12-10T04:47:00;55.22;;;21.90;;
23394;SDS011;11870;53.084;18.206;2022-12-10T04:49:27;59.58;;;22.73;;
23394;SDS011;11870;53.084;18.206;2022-12-10T04:51:54;62.10;;;24.13;;
23394;SDS011;11870;53.084;18.206;2022-12-10T04:54:20;60.05;;;23.67;;
23394;SDS011;11870;53.084;18.206;2022-12-10T04:56:47;60.25;;;23.30;;
23394;SDS011;11870;53.084;18.206;2022-12-10T04:59:12;58.50;;;23.02;;
23394;SDS011;11870;53.084;18.206;2022-12-10T05:01:39;54.72;;;22.10;;
23394;SDS011;11870;53.084;18.206;2022-12-10T05:04:06;59.67;;;22.80;;
23394;SDS011;11870;53.084;18.206;2022-12-10T05:06:35;63.80;;;23.13;;
23394;SDS011;11870;53.084;18.206;2022-12-10T05:09:01;53.88;;;21.48;;
23394;SDS011;11870;53.084;18.206;2022-12-10T05:11:28;54.25;;;21.85;;
23394;SDS011;11870;53.084;18.206;2022-12-10T05:13:55;62.83;;;23.08;;
23394;SDS011;11870;53.084;18.206;2022-12-10T05:16:23;53.67;;;21.70;;
23394;SDS011;11870;53.084;18.206;2022-12-10T05:18:52;53.38;;;21.08;;
23394;SDS011;11870;53.084;18.206;2022-12-10T05:21:19;56.25;;;22.40;;
23394;SDS011;11870;53.084;18.206;2022-12-10T05:23:48;52.58;;;20.98;;
23394;SDS011;11870;53.084;18.206;2022-12-10T05:26:23;62.10;;;22.95;;
23394;SDS011;11870;53.084;18.206;2022-12-10T05:28:51;57.03;;;23.15;;
23394;SDS011;11870;53.084;18.206;2022-12-10T05:31:19;52.10;;;21.10;;
23394;SDS011;11870;53.084;18.206;2022-12-10T05:33:51;51.58;;;20.33;;
23394;SDS011;11870;53.084;18.206;2022-12-10T05:36:18;47.97;;;20.02;;
23394;SDS011;11870;53.084;18.206;2022-12-10T05:38:46;49.97;;;20.45;;
23394;SDS011;11870;53.084;18.206;2022-12-10T05:41:14;48.00;;;19.52;;
23394;SDS011;11870;53.084;18.206;2022-12-10T05:43:42;53.05;;;19.80;;
23394;SDS011;11870;53.084;18.206;2022-12-10T05:46:10;50.25;;;19.60;;
23394;SDS011;11870;53.084;18.206;2022-12-10T05:48:38;50.85;;;19.75;;
23394;SDS011;11870;53.084;18.206;2022-12-10T05:51:04;47.85;;;20.17;;
23394;SDS011;11870;53.084;18.206;2022-12-10T05:53:31;46.53;;;19.73;;
23394;SDS011;11870;53.084;18.206;2022-12-10T05:56:04;51.47;;;20.00;;
23394;SDS011;11870;53.084;18.206;2022-12-10T05:58:33;45.67;;;19.25;;
23394;SDS011;11870;53.084;18.206;2022-12-10T06:00:59;43.70;;;18.35;;
23394;SDS011;11870;53.084;18.206;2022-12-10T06:03:26;44.33;;;18.58;;
23394;SDS011;11870;53.084;18.206;2022-12-10T06:05:52;44.50;;;17.85;;
23394;SDS011;11870;53.084;18.206;2022-12-10T06:08:19;62.78;;;24.63;;
23394;SDS011;11870;53.084;18.206;2022-12-10T06:10:45;63.00;;;25.42;;
23394;SDS011;11870;53.084;18.206;2022-12-10T06:13:11;78.82;;;30.67;;
23394;SDS011;11870;53.084;18.206;2022-12-10T06:15:38;115.57;;;44.60;;
23394;SDS011;11870;53.084;18.206;2022-12-10T06:18:06;50.65;;;21.17;;
23394;SDS011;11870;53.084;18.206;2022-12-10T06:20:32;45.72;;;19.77;;
23394;SDS011;11870;53.084;18.206;2022-12-10T06:22:58;44.10;;;18.90;;
23394;SDS011;11870;53.084;18.206;2022-12-10T06:25:24;41.15;;;17.80;;
23394;SDS011;11870;53.084;18.206;2022-12-10T06:27:50;41.65;;;17.95;;
23394;SDS011;11870;53.084;18.206;2022-12-10T06:30:15;62.60;;;21.45;;
23394;SDS011;11870;53.084;18.206;2022-12-10T06:32:42;46.20;;;17.77;;
23394;SDS011;11870;53.084;18.206;2022-12-10T06:35:11;49.58;;;18.00;;
23394;SDS011;11870;53.084;18.206;2022-12-10T06:37:37;45.33;;;17.80;;
23394;SDS011;11870;53.084;18.206;2022-12-10T06:40:03;39.42;;;15.85;;
23394;SDS011;11870;53.084;18.206;2022-12-10T06:42:30;39.08;;;16.90;;
23394;SDS011;11870;53.084;18.206;2022-12-10T06:44:56;38.80;;;16.23;;
23394;SDS011;11870;53.084;18.206;2022-12-10T06:47:22;39.72;;;16.10;;
23394;SDS011;11870;53.084;18.206;2022-12-10T06:49:48;38.00;;;16.25;;
23394;SDS011;11870;53.084;18.206;2022-12-10T06:52:14;35.10;;;14.65;;
23394;SDS011;11870;53.084;18.206;2022-12-10T06:54:40;37.38;;;15.50;;
23394;SDS011;11870;53.084;18.206;2022-12-10T06:57:06;32.53;;;14.35;;
23394;SDS011;11870;53.084;18.206;2022-12-10T06:59:32;33.97;;;13.82;;
23394;SDS011;11870;53.084;18.206;2022-12-10T07:01:58;35.13;;;13.63;;
23394;SDS011;11870;53.084;18.206;2022-12-10T07:04:24;37.63;;;14.38;;
23394;SDS011;11870;53.084;18.206;2022-12-10T07:06:50;34.67;;;14.38;;
23394;SDS011;11870;53.084;18.206;2022-12-10T07:09:16;34.60;;;14.27;;
23394;SDS011;11870;53.084;18.206;2022-12-10T07:11:42;46.67;;;16.85;;
23394;SDS011;11870;53.084;18.206;2022-12-10T07:14:11;66.35;;;22.52;;
23394;SDS011;11870;53.084;18.206;2022-12-10T07:16:39;41.42;;;17.58;;
23394;SDS011;11870;53.084;18.206;2022-12-10T07:19:05;35.60;;;16.15;;
23394;SDS011;11870;53.084;18.206;2022-12-10T07:21:32;42.90;;;16.75;;
23394;SDS011;11870;53.084;18.206;2022-12-10T07:24:01;41.60;;;16.67;;
23394;SDS011;11870;53.084;18.206;2022-12-10T07:26:29;66.50;;;24.20;;
23394;SDS011;11870;53.084;18.206;2022-12-10T07:28:57;42.05;;;17.40;;
23394;SDS011;11870;53.084;18.206;2022-12-10T07:31:25;36.88;;;14.70;;
23394;SDS011;11870;53.084;18.206;2022-12-10T07:33:51;37.40;;;14.27;;
23394;SDS011;11870;53.084;18.206;2022-12-10T07:36:19;38.38;;;14.75;;
23394;SDS011;11870;53.084;18.206;2022-12-10T07:38:46;36.58;;;13.65;;
23394;SDS011;11870;53.084;18.206;2022-12-10T07:41:12;40.35;;;15.23;;
23394;SDS011;11870;53.084;18.206;2022-12-10T07:43:39;34.70;;;14.57;;
23394;SDS011;11870;53.084;18.206;2022-12-10T07:46:08;32.70;;;12.95;;
23394;SDS011;11870;53.084;18.206;2022-12-10T07:48:36;36.38;;;13.80;;
23394;SDS011;11870;53.084;18.206;2022-12-10T07:51:03;32.08;;;13.25;;
23394;SDS011;11870;53.084;18.206;2022-12-10T07:53:29;37.13;;;14.73;;
23394;SDS011;11870;53.084;18.206;2022-12-10T07:55:56;39.65;;;15.18;;
23394;SDS011;11870;53.084;18.206;2022-12-10T07:58:22;41.17;;;17.05;;
23394;SDS011;11870;53.084;18.206;2022-12-10T08:00:48;42.63;;;16.10;;
23394;SDS011;11870;53.084;18.206;2022-12-10T08:03:14;47.38;;;17.40;;
23394;SDS011;11870;53.084;18.206;2022-12-10T08:05:40;35.15;;;14.88;;
23394;SDS011;11870;53.084;18.206;2022-12-10T08:08:05;39.17;;;15.00;;
23394;SDS011;11870;53.084;18.206;2022-12-10T08:10:38;35.95;;;14.18;;
23394;SDS011;11870;53.084;18.206;2022-12-10T08:13:04;39.33;;;14.65;;
23394;SDS011;11870;53.084;18.206;2022-12-10T08:15:31;37.92;;;14.45;;
23394;SDS011;11870;53.084;18.206;2022-12-10T08:17:57;41.80;;;16.60;;
23394;SDS011;11870;53.084;18.206;2022-12-10T08:20:24;42.75;;;16.15;;
23394;SDS011;11870;53.084;18.206;2022-12-10T08:22:50;38.28;;;15.82;;
23394;SDS011;11870;53.084;18.206;2022-12-10T08:25:16;37.38;;;15.95;;
23394;SDS011;11870;53.084;18.206;2022-12-10T08:27:42;39.47;;;15.77;;
23394;SDS011;11870;53.084;18.206;2022-12-10T08:30:09;42.72;;;16.15;;
23394;SDS011;11870;53.084;18.206;2022-12-10T08:32:35;39.40;;;15.25;;
23394;SDS011;11870;53.084;18.206;2022-12-10T08:35:01;38.50;;;15.18;;
23394;SDS011;11870;53.084;18.206;2022-12-10T08:37:27;39.03;;;14.20;;
23394;SDS011;11870;53.084;18.206;2022-12-10T08:39:53;37.95;;;15.00;;
23394;SDS011;11870;53.084;18.206;2022-12-10T08:42:18;35.58;;;14.18;;
23394;SDS011;11870;53.084;18.206;2022-12-10T08:44:44;36.03;;;13.52;;
23394;SDS011;11870;53.084;18.206;2022-12-10T08:47:10;34.53;;;14.52;;
23394;SDS011;11870;53.084;18.206;2022-12-10T08:49:36;34.20;;;13.20;;
23394;SDS011;11870;53.084;18.206;2022-12-10T08:52:02;30.38;;;12.40;;
23394;SDS011;11870;53.084;18.206;2022-12-10T08:54:28;32.70;;;13.18;;
23394;SDS011;11870;53.084;18.206;2022-12-10T08:56:54;28.40;;;12.57;;
23394;SDS011;11870;53.084;18.206;2022-12-10T08:59:20;31.98;;;12.02;;
23394;SDS011;11870;53.084;18.206;2022-12-10T09:01:46;30.85;;;12.55;;
23394;SDS011;11870;53.084;18.206;2022-12-10T09:04:12;33.92;;;14.30;;
23394;SDS011;11870;53.084;18.206;2022-12-10T09:06:38;31.20;;;12.85;;
23394;SDS011;11870;53.084;18.206;2022-12-10T09:09:04;27.40;;;12.05;;
23394;SDS011;11870;53.084;18.206;2022-12-10T09:11:32;26.73;;;11.70;;
23394;SDS011;11870;53.084;18.206;2022-12-10T09:13:59;28.85;;;11.82;;
23394;SDS011;11870;53.084;18.206;2022-12-10T09:16:43;25.73;;;10.77;;
23394;SDS011;11870;53.084;18.206;2022-12-10T09:19:09;26.30;;;10.20;;
23394;SDS011;11870;53.084;18.206;2022-12-10T09:21:35;23.95;;;10.35;;
23394;SDS011;11870;53.084;18.206;2022-12-10T09:24:02;25.40;;;10.15;;
23394;SDS011;11870;53.084;18.206;2022-12-10T09:26:28;23.30;;;10.60;;
23394;SDS011;11870;53.084;18.206;2022-12-10T09:28:54;28.30;;;10.98;;
23394;SDS011;11870;53.084;18.206;2022-12-10T09:31:20;28.15;;;11.60;;
23394;SDS011;11870;53.084;18.206;2022-12-10T09:33:47;21.42;;;9.40;;
23394;SDS011;11870;53.084;18.206;2022-12-10T09:36:14;26.48;;;10.18;;
23394;SDS011;11870;53.084;18.206;2022-12-10T09:38:41;23.67;;;10.20;;
23394;SDS011;11870;53.084;18.206;2022-12-10T09:44:10;27.13;;;11.63;;
23394;SDS011;11870;53.084;18.206;2022-12-10T09:52:16;30.33;;;13.10;;
23394;SDS011;11870;53.084;18.206;2022-12-10T09:54:47;30.98;;;13.93;;
23394;SDS011;11870;53.084;18.206;2022-12-10T09:57:32;36.65;;;13.60;;
23394;SDS011;11870;53.084;18.206;2022-12-10T10:00:09;28.88;;;12.38;;
23394;SDS011;11870;53.084;18.206;2022-12-10T10:03:01;28.30;;;12.25;;
23394;SDS011;11870;53.084;18.206;2022-12-10T10:05:28;33.92;;;14.73;;
23394;SDS011;11870;53.084;18.206;2022-12-10T10:07:59;35.15;;;13.73;;
23394;SDS011;11870;53.084;18.206;2022-12-10T10:10:29;29.73;;;13.13;;
23394;SDS011;11870;53.084;18.206;2022-12-10T10:15:34;29.33;;;12.73;;
23394;SDS011;11870;53.084;18.206;2022-12-10T10:18:02;35.58;;;12.70;;
23394;SDS011;11870;53.084;18.206;2022-12-10T10:20:36;27.88;;;12.55;;
23394;SDS011;11870;53.084;18.206;2022-12-10T10:23:02;32.63;;;13.02;;
23394;SDS011;11870;53.084;18.206;2022-12-10T10:25:28;29.90;;;12.10;;
23394;SDS011;11870;53.084;18.206;2022-12-10T10:27:55;31.95;;;11.95;;
23394;SDS011;11870;53.084;18.206;2022-12-10T10:30:22;26.23;;;11.65;;
23394;SDS011;11870;53.084;18.206;2022-12-10T10:32:49;25.45;;;11.45;;
23394;SDS011;11870;53.084;18.206;2022-12-10T10:35:25;28.65;;;12.75;;
23394;SDS011;11870;53.084;18.206;2022-12-10T10:38:00;28.80;;;12.23;;
23394;SDS011;11870;53.084;18.206;2022-12-10T10:40:39;27.23;;;11.98;;
23394;SDS011;11870;53.084;18.206;2022-12-10T10:43:08;29.08;;;12.80;;
23394;SDS011;11870;53.084;18.206;2022-12-10T10:46:03;27.20;;;12.13;;
23394;SDS011;11870;53.084;18.206;2022-12-10T10:48:38;28.40;;;11.82;;
23394;SDS011;11870;53.084;18.206;2022-12-10T10:51:06;24.77;;;11.05;;
23394;SDS011;11870;53.084;18.206;2022-12-10T10:56:10;24.70;;;10.85;;
23394;SDS011;11870;53.084;18.206;2022-12-10T10:58:46;27.27;;;11.77;;
23394;SDS011;11870;53.084;18.206;2022-12-10T11:01:17;52.78;;;24.33;;
23394;SDS011;11870;53.084;18.206;2022-12-10T11:03:50;30.92;;;12.93;;
23394;SDS011;11870;53.084;18.206;2022-12-10T11:06:20;29.65;;;11.68;;
23394;SDS011;11870;53.084;18.206;2022-12-10T11:08:47;30.67;;;12.95;;
23394;SDS011;11870;53.084;18.206;2022-12-10T11:11:18;27.95;;;12.07;;
23394;SDS011;11870;53.084;18.206;2022-12-10T11:13:46;24.63;;;11.35;;
23394;SDS011;11870;53.084;18.206;2022-12-10T11:18:54;22.13;;;10.10;;
23394;SDS011;11870;53.084;18.206;2022-12-10T11:21:21;26.55;;;11.18;;
23394;SDS011;11870;53.084;18.206;2022-12-10T11:23:48;30.38;;;11.70;;
23394;SDS011;11870;53.084;18.206;2022-12-10T11:26:21;24.52;;;10.30;;
23394;SDS011;11870;53.084;18.206;2022-12-10T11:29:23;25.02;;;10.48;;
23394;SDS011;11870;53.084;18.206;2022-12-10T11:32:10;26.85;;;10.63;;
23394;SDS011;11870;53.084;18.206;2022-12-10T11:35:07;22.98;;;9.95;;
23394;SDS011;11870;53.084;18.206;2022-12-10T11:51:02;17.10;;;8.20;;
23394;SDS011;11870;53.084;18.206;2022-12-10T11:56:08;29.42;;;11.93;;
23394;SDS011;11870;53.084;18.206;2022-12-10T11:59:08;27.13;;;10.00;;
23394;SDS011;11870;53.084;18.206;2022-12-10T12:10:02;24.40;;;10.00;;
23394;SDS011;11870;53.084;18.206;2022-12-10T12:18:13;30.95;;;12.25;;
23394;SDS011;11870;53.084;18.206;2022-12-10T12:20:49;15.65;;;7.15;;
23394;SDS011;11870;53.084;18.206;2022-12-10T12:26:17;15.25;;;7.75;;
23394;SDS011;11870;53.084;18.206;2022-12-10T12:31:39;28.02;;;9.68;;
23394;SDS011;11870;53.084;18.206;2022-12-10T12:34:20;22.35;;;9.70;;
23394;SDS011;11870;53.084;18.206;2022-12-10T12:36:51;52.53;;;15.00;;
23394;SDS011;11870;53.084;18.206;2022-12-10T12:39:28;24.65;;;10.30;;
23394;SDS011;11870;53.084;18.206;2022-12-10T12:50:30;23.50;;;9.18;;
23394;SDS011;11870;53.084;18.206;2022-12-10T12:53:09;22.85;;;10.00;;
23394;SDS011;11870;53.084;18.206;2022-12-10T13:01:21;37.17;;;12.60;;
23394;SDS011;11870;53.084;18.206;2022-12-10T13:04:03;21.33;;;9.88;;
23394;SDS011;11870;53.084;18.206;2022-12-10T13:06:32;21.45;;;9.48;;
23394;SDS011;11870;53.084;18.206;2022-12-10T13:21:57;18.08;;;8.65;;
23394;SDS011;11870;53.084;18.206;2022-12-10T13:27:24;27.20;;;10.88;;
23394;SDS011;11870;53.084;18.206;2022-12-10T13:37:33;79.75;;;30.67;;
23394;SDS011;11870;53.084;18.206;2022-12-10T13:42:36;30.52;;;12.77;;
23394;SDS011;11870;53.084;18.206;2022-12-10T13:47:54;26.23;;;10.77;;
23394;SDS011;11870;53.084;18.206;2022-12-10T13:53:56;22.85;;;10.02;;
23394;SDS011;11870;53.084;18.206;2022-12-10T13:57:22;27.38;;;10.82;;
23394;SDS011;11870;53.084;18.206;2022-12-10T14:05:18;28.20;;;11.18;;
23394;SDS011;11870;53.084;18.206;2022-12-10T14:07:46;28.95;;;13.23;;
23394;SDS011;11870;53.084;18.206;2022-12-10T14:10:15;22.63;;;10.95;;
23394;SDS011;11870;53.084;18.206;2022-12-10T14:12:43;22.50;;;10.63;;
23394;SDS011;11870;53.084;18.206;2022-12-10T14:15:18;29.58;;;12.48;;
23394;SDS011;11870;53.084;18.206;2022-12-10T14:17:48;21.45;;;10.77;;
23394;SDS011;11870;53.084;18.206;2022-12-10T14:20:29;24.92;;;11.43;;
23394;SDS011;11870;53.084;18.206;2022-12-10T14:23:02;25.98;;;11.35;;
23394;SDS011;11870;53.084;18.206;2022-12-10T14:25:48;27.80;;;11.40;;
23394;SDS011;11870;53.084;18.206;2022-12-10T14:28:15;21.27;;;10.48;;
23394;SDS011;11870;53.084;18.206;2022-12-10T14:30:46;28.02;;;11.02;;
23394;SDS011;11870;53.084;18.206;2022-12-10T14:33:22;26.42;;;11.15;;
23394;SDS011;11870;53.084;18.206;2022-12-10T14:35:50;26.23;;;11.90;;
23394;SDS011;11870;53.084;18.206;2022-12-10T14:38:23;32.67;;;13.50;;
23394;SDS011;11870;53.084;18.206;2022-12-10T14:40:54;29.52;;;13.02;;
23394;SDS011;11870;53.084;18.206;2022-12-10T14:43:22;22.73;;;11.05;;
23394;SDS011;11870;53.084;18.206;2022-12-10T14:45:56;26.90;;;11.35;;
23394;SDS011;11870;53.084;18.206;2022-12-10T14:48:25;24.88;;;10.80;;
23394;SDS011;11870;53.084;18.206;2022-12-10T14:50:51;25.50;;;11.30;;
23394;SDS011;11870;53.084;18.206;2022-12-10T14:53:24;28.70;;;11.95;;
23394;SDS011;11870;53.084;18.206;2022-12-10T14:55:53;27.40;;;11.93;;
23394;SDS011;11870;53.084;18.206;2022-12-10T14:58:28;29.70;;;13.52;;
23394;SDS011;11870;53.084;18.206;2022-12-10T15:00:55;26.05;;;11.32;;
23394;SDS011;11870;53.084;18.206;2022-12-10T15:03:27;24.13;;;11.55;;
23394;SDS011;11870;53.084;18.206;2022-12-10T15:05:56;29.00;;;12.00;;
23394;SDS011;11870;53.084;18.206;2022-12-10T15:08:26;23.70;;;11.65;;
23394;SDS011;11870;53.084;18.206;2022-12-10T15:10:54;28.45;;;13.43;;
23394;SDS011;11870;53.084;18.206;2022-12-10T15:15:57;30.35;;;15.55;;
23394;SDS011;11870;53.084;18.206;2022-12-10T15:18:31;31.00;;;15.20;;
23394;SDS011;11870;53.084;18.206;2022-12-10T15:21:12;28.75;;;12.18;;
23394;SDS011;11870;53.084;18.206;2022-12-10T15:23:46;30.48;;;13.30;;
23394;SDS011;11870;53.084;18.206;2022-12-10T15:26:14;33.90;;;15.75;;
23394;SDS011;11870;53.084;18.206;2022-12-10T15:28:46;51.78;;;23.38;;
23394;SDS011;11870;53.084;18.206;2022-12-10T15:33:56;40.13;;;18.25;;
23394;SDS011;11870;53.084;18.206;2022-12-10T15:39:18;55.97;;;23.40;;
23394;SDS011;11870;53.084;18.206;2022-12-10T15:44:36;31.08;;;13.80;;
23394;SDS011;11870;53.084;18.206;2022-12-10T15:47:23;33.55;;;14.93;;
23394;SDS011;11870;53.084;18.206;2022-12-10T15:49:51;29.27;;;13.30;;
23394;SDS011;11870;53.084;18.206;2022-12-10T15:52:23;41.30;;;17.95;;
23394;SDS011;11870;53.084;18.206;2022-12-10T15:54:52;35.90;;;16.35;;
23394;SDS011;11870;53.084;18.206;2022-12-10T15:59:48;29.85;;;12.55;;
23394;SDS011;11870;53.084;18.206;2022-12-10T16:05:01;36.03;;;13.73;;
23394;SDS011;11870;53.084;18.206;2022-12-10T16:07:30;30.17;;;14.32;;
23394;SDS011;11870;53.084;18.206;2022-12-10T16:09:58;30.17;;;12.90;;
23394;SDS011;11870;53.084;18.206;2022-12-10T16:12:23;66.85;;;21.25;;
23394;SDS011;11870;53.084;18.206;2022-12-10T16:14:51;44.63;;;16.48;;
23394;SDS011;11870;53.084;18.206;2022-12-10T16:17:21;38.03;;;15.30;;
23394;SDS011;11870;53.084;18.206;2022-12-10T16:19:47;41.58;;;15.80;;
23394;SDS011;11870;53.084;18.206;2022-12-10T16:22:13;58.22;;;20.33;;
23394;SDS011;11870;53.084;18.206;2022-12-10T16:24:39;31.98;;;13.80;;
23394;SDS011;11870;53.084;18.206;2022-12-10T16:27:12;29.80;;;13.48;;
23394;SDS011;11870;53.084;18.206;2022-12-10T16:29:40;38.17;;;15.93;;
23394;SDS011;11870;53.084;18.206;2022-12-10T16:32:10;51.90;;;18.20;;
23394;SDS011;11870;53.084;18.206;2022-12-10T16:34:37;42.45;;;15.18;;
23394;SDS011;11870;53.084;18.206;2022-12-10T16:37:04;29.10;;;12.85;;
23394;SDS011;11870;53.084;18.206;2022-12-10T16:39:31;27.83;;;12.65;;
23394;SDS011;11870;53.084;18.206;2022-12-10T16:41:57;44.45;;;20.75;;
23394;SDS011;11870;53.084;18.206;2022-12-10T16:44:23;45.47;;;19.52;;